createdAt,value
2022-11-01T00:00:01.613Z,8.77
2022-11-01T00:03:05.470Z,9.05
2022-11-01T00:06:07.921Z,9.98
2022-11-01T00:09:10.536Z,10.63
2022-11-01T00:12:12.977Z,8.50
2022-11-01T00:15:15.475Z,7.70
2022-11-01T00:18:19.384Z,9.10
2022-11-01T00:21:21.929Z,9.23
2022-11-01T00:24:24.966Z,8.68
2022-11-01T00:27:27.365Z,9.77
2022-11-01T00:30:29.839Z,9.48
2022-11-01T00:33:33.701Z,9.27
2022-11-01T00:36:36.749Z,9.45
2022-11-01T00:39:39.208Z,9.98
2022-11-01T00:42:41.696Z,9.23
2022-11-01T00:45:45.123Z,9.00
2022-11-01T00:48:48.933Z,9.98
2022-11-01T00:51:52.090Z,9.20
2022-11-01T00:54:55.253Z,8.95
2022-11-01T00:57:57.686Z,10.30
2022-11-01T01:01:00.217Z,9.25
2022-11-01T01:04:04.192Z,9.57
2022-11-01T01:07:06.636Z,9.55
2022-11-01T01:10:09.860Z,9.38
2022-11-01T01:13:13.628Z,10.38
2022-11-01T01:16:16.091Z,10.55
2022-11-01T01:19:19.941Z,9.88
2022-11-01T01:22:22.347Z,11.27
2022-11-01T01:25:25.996Z,10.95
2022-11-01T01:28:37.636Z,10.25
2022-11-01T01:31:42.692Z,10.40
2022-11-01T01:34:46.466Z,10.20
2022-11-01T01:37:49.063Z,10.00
2022-11-01T01:40:51.525Z,10.77
2022-11-01T01:43:54.077Z,11.25
2022-11-01T01:46:56.532Z,10.65
2022-11-01T01:50:02.941Z,10.57
2022-11-01T01:53:07.256Z,11.45
2022-11-01T01:56:13.347Z,10.73
2022-11-01T01:59:15.870Z,11.45
2022-11-01T02:02:18.785Z,12.30
2022-11-01T02:05:27.175Z,11.75
2022-11-01T02:08:30.244Z,12.18
2022-11-01T02:11:32.837Z,11.48
2022-11-01T02:14:35.650Z,12.35
2022-11-01T02:17:40.134Z,12.35
2022-11-01T02:21:03.547Z,11.57
2022-11-01T02:24:19.803Z,11.55
2022-11-01T02:27:26.286Z,12.60
2022-11-01T02:30:34.051Z,11.57
2022-11-01T02:33:40.773Z,13.18
2022-11-01T02:36:45.420Z,11.35
2022-11-01T02:39:49.716Z,12.98
2022-11-01T02:42:54.623Z,12.88
2022-11-01T02:45:58.126Z,11.75
2022-11-01T02:49:02.006Z,12.27
2022-11-01T02:52:05.880Z,13.25
2022-11-01T02:55:29.350Z,12.73
2022-11-01T02:58:32.323Z,11.60
2022-11-01T03:01:36.086Z,13.25
2022-11-01T03:04:39.992Z,14.10
2022-11-01T03:07:43.960Z,13.98
2022-11-01T03:10:50.948Z,13.15
2022-11-01T03:14:00.486Z,14.00
2022-11-01T03:17:06.781Z,13.77
2022-11-01T03:20:16.510Z,14.25
2022-11-01T03:23:21.026Z,14.15
2022-11-01T03:26:25.782Z,14.80
2022-11-01T03:29:30.433Z,14.90
2022-11-01T03:32:34.069Z,15.05
2022-11-01T03:35:39.460Z,13.48
2022-11-01T03:38:50.835Z,14.13
2022-11-01T03:41:56.231Z,14.00
2022-11-01T03:45:00.007Z,13.80
2022-11-01T03:48:02.850Z,14.60
2022-11-01T03:51:07.831Z,13.00
2022-11-01T03:54:12.131Z,13.77
2022-11-01T03:57:14.658Z,11.82
2022-11-01T04:00:18.252Z,13.52
2022-11-01T04:03:20.799Z,12.43
2022-11-01T04:06:24.637Z,14.10
2022-11-01T04:09:27.155Z,14.57
2022-11-01T04:12:32.676Z,13.27
2022-11-01T04:15:53.580Z,14.55
2022-11-01T04:19:13.734Z,13.07
2022-11-01T04:22:19.438Z,14.00
2022-11-01T04:25:24.549Z,13.30
2022-11-01T04:28:27.270Z,14.48
2022-11-01T04:31:30.685Z,12.52
2022-11-01T04:34:45.236Z,13.70
2022-11-01T04:37:48.959Z,14.55
2022-11-01T04:40:53.327Z,15.27
2022-11-01T04:43:56.951Z,14.10
2022-11-01T04:46:59.361Z,15.30
2022-11-01T04:50:02.129Z,15.40
2022-11-01T04:53:06.069Z,13.85
2022-11-01T04:56:09.801Z,13.50
2022-11-01T04:59:12.278Z,13.27
2022-11-01T05:02:17.225Z,14.00
2022-11-01T05:05:20.008Z,15.15
2022-11-01T05:08:26.344Z,14.80
2022-11-01T05:11:28.875Z,13.20
2022-11-01T05:14:31.397Z,14.40
2022-11-01T05:17:33.829Z,14.05
2022-11-01T05:20:36.301Z,14.38
2022-11-01T05:23:40.177Z,13.35
2022-11-01T05:26:42.630Z,14.02
2022-11-01T05:29:45.036Z,13.65
2022-11-01T05:32:47.477Z,13.27
2022-11-01T05:35:49.886Z,14.25
2022-11-01T05:38:56.409Z,13.10
2022-11-01T05:42:01.756Z,15.85
2022-11-01T05:45:06.044Z,13.93
2022-11-01T05:48:08.489Z,14.38
2022-11-01T05:51:11.526Z,13.90
2022-11-01T05:54:15.434Z,14.35
2022-11-01T05:57:17.850Z,14.32
2022-11-01T06:00:20.366Z,15.00
2022-11-01T06:03:22.968Z,14.23
2022-11-01T06:06:25.424Z,14.10
2022-11-01T06:09:29.327Z,13.75
2022-11-01T06:12:32.771Z,13.35
2022-11-01T06:15:38.725Z,14.63
2022-11-01T06:18:42.250Z,13.68
2022-11-01T06:21:44.713Z,13.50
2022-11-01T06:24:48.487Z,13.50
2022-11-01T06:27:51.000Z,13.63
2022-11-01T06:30:53.507Z,13.75
2022-11-01T06:33:55.953Z,14.25
2022-11-01T06:36:59.211Z,13.35
2022-11-01T06:40:03.089Z,14.82
2022-11-01T06:43:06.467Z,13.98
2022-11-01T06:46:09.069Z,14.60
2022-11-01T06:49:16.315Z,13.48
2022-11-01T06:52:21.467Z,13.80
2022-11-01T06:55:25.261Z,12.50
2022-11-01T06:58:27.724Z,14.07
2022-11-01T07:01:30.281Z,12.93
2022-11-01T07:04:33.043Z,12.70
2022-11-01T07:07:36.473Z,13.30
2022-11-01T07:10:41.154Z,12.20
2022-11-01T07:13:43.685Z,12.82
2022-11-01T07:16:46.239Z,12.93
2022-11-01T07:19:48.733Z,12.95
2022-11-01T07:22:57.777Z,14.00
2022-11-01T07:26:01.592Z,13.05
2022-11-01T07:29:04.219Z,11.90
2022-11-01T07:32:06.883Z,12.10
2022-11-01T07:35:09.796Z,11.68
2022-11-01T07:38:13.385Z,11.73
2022-11-01T07:41:17.797Z,11.52
2022-11-01T07:44:20.426Z,11.85
2022-11-01T07:47:22.968Z,11.13
2022-11-01T07:50:25.450Z,12.27
2022-11-01T07:53:27.913Z,11.63
2022-11-01T07:56:31.926Z,11.50
2022-11-01T07:59:34.458Z,10.65
2022-11-01T08:02:39.336Z,11.70
2022-11-01T08:05:42.580Z,11.27
2022-11-01T08:08:45.935Z,11.82
2022-11-01T08:11:49.762Z,10.25
2022-11-01T08:14:52.336Z,10.50
2022-11-01T08:18:00.004Z,10.32
2022-11-01T08:21:02.686Z,11.15
2022-11-01T08:24:05.493Z,9.95
2022-11-01T08:27:11.665Z,10.15
2022-11-01T08:30:15.528Z,10.15
2022-11-01T08:33:26.705Z,9.68
2022-11-01T08:36:31.907Z,9.18
2022-11-01T08:39:48.517Z,9.65
2022-11-01T08:42:58.303Z,9.27
2022-11-01T08:46:00.763Z,9.23
2022-11-01T08:49:03.245Z,8.90
2022-11-01T08:52:06.018Z,8.77
2022-11-01T08:55:09.309Z,7.72
2022-11-01T08:58:43.618Z,8.82
2022-11-01T09:01:47.731Z,8.27
2022-11-01T09:05:04.289Z,7.07
2022-11-01T09:08:17.491Z,7.20
2022-11-01T09:11:20.659Z,6.85
2022-11-01T09:14:36.695Z,6.25
2022-11-01T09:17:51.394Z,5.40
2022-11-01T09:21:04.055Z,5.70
2022-11-01T09:24:23.115Z,6.10
2022-11-01T09:27:25.564Z,4.93
2022-11-01T09:30:28.641Z,4.68
2022-11-01T09:33:32.940Z,4.20
2022-11-01T09:36:37.493Z,4.90
2022-11-01T09:39:40.006Z,4.47
2022-11-01T09:42:44.611Z,4.00
2022-11-01T09:45:47.167Z,3.55
2022-11-01T09:48:51.167Z,3.80
2022-11-01T09:51:53.897Z,3.70
2022-11-01T09:54:56.496Z,3.83
2022-11-01T09:58:01.645Z,3.72
2022-11-01T10:01:14.892Z,3.60
2022-11-01T10:04:35.041Z,3.67
2022-11-01T10:07:48.417Z,3.78
2022-11-01T10:10:53.873Z,2.80
2022-11-01T10:14:00.761Z,2.92
2022-11-01T10:17:40.890Z,2.53
2022-11-01T10:20:59.117Z,3.00
2022-11-01T10:24:03.673Z,2.95
2022-11-01T10:27:16.031Z,2.78
2022-11-01T10:30:18.967Z,2.45
2022-11-01T10:33:25.673Z,2.70
2022-11-01T10:36:35.267Z,2.53
2022-11-01T10:39:59.160Z,2.42
2022-11-01T10:43:08.725Z,2.15
2022-11-01T10:46:14.175Z,2.05
2022-11-01T10:49:20.503Z,2.08
2022-11-01T10:52:26.391Z,2.38
2022-11-01T10:55:34.831Z,1.95
2022-11-01T10:58:44.668Z,2.17
2022-11-01T11:02:21.059Z,1.88
2022-11-01T11:05:24.772Z,2.00
2022-11-01T11:08:38.266Z,1.80
2022-11-01T11:11:52.776Z,1.88
2022-11-01T11:14:57.670Z,1.35
2022-11-01T11:18:03.374Z,1.38
2022-11-01T11:21:08.503Z,1.10
2022-11-01T11:24:19.509Z,1.30
2022-11-01T11:27:22.872Z,0.90
2022-11-01T11:30:29.142Z,0.90
2022-11-01T11:33:31.626Z,0.88
2022-11-01T11:36:36.563Z,0.77
2022-11-01T11:40:00.366Z,0.90
2022-11-01T11:43:20.524Z,0.60
2022-11-01T11:46:26.157Z,1.27
2022-11-01T11:49:28.959Z,0.93
2022-11-01T11:52:38.403Z,0.95
2022-11-01T11:55:43.990Z,1.80
2022-11-01T11:58:48.840Z,1.00
2022-11-01T12:01:56.068Z,0.95
2022-11-01T12:05:00.280Z,1.00
2022-11-01T12:08:03.407Z,0.70
2022-11-01T12:11:07.843Z,0.90
2022-11-01T12:14:40.065Z,1.00
2022-11-01T12:17:50.984Z,0.90
2022-11-01T12:20:55.170Z,0.77
2022-11-01T12:24:11.516Z,0.68
2022-11-01T12:27:17.033Z,0.90
2022-11-01T12:30:27.515Z,0.80
2022-11-01T12:33:31.954Z,0.70
2022-11-01T12:36:42.793Z,1.00
2022-11-01T12:39:51.929Z,0.85
2022-11-01T12:42:57.707Z,0.80
2022-11-01T12:46:09.098Z,0.70
2022-11-01T12:49:18.435Z,0.90
2022-11-01T12:52:29.246Z,0.85
2022-11-01T12:55:33.234Z,0.88
2022-11-01T12:58:42.496Z,0.90
2022-11-01T13:01:52.528Z,0.90
2022-11-01T13:04:58.258Z,0.75
2022-11-01T13:08:08.575Z,0.90
2022-11-01T13:11:15.477Z,0.90
2022-11-01T13:14:34.097Z,0.82
2022-11-01T13:17:41.099Z,1.23
2022-11-01T13:20:48.336Z,1.00
2022-11-01T13:23:53.822Z,1.00
2022-11-01T13:26:58.105Z,1.10
2022-11-01T13:30:03.517Z,0.90
2022-11-01T13:33:11.781Z,0.68
2022-11-01T13:36:16.466Z,0.98
2022-11-01T13:39:25.449Z,1.10
2022-11-01T13:42:31.341Z,1.10
2022-11-01T13:45:51.210Z,0.82
2022-11-01T13:49:12.390Z,0.77
2022-11-01T13:52:22.313Z,0.80
2022-11-01T13:55:29.081Z,0.90
2022-11-01T13:58:32.597Z,1.27
2022-11-01T14:01:39.876Z,0.93
2022-11-01T14:04:56.499Z,0.70
2022-11-01T14:08:45.780Z,1.00
2022-11-01T14:11:49.675Z,0.95
2022-11-01T14:15:09.435Z,0.80
2022-11-01T14:18:20.545Z,0.93
2022-11-01T14:21:31.346Z,1.45
2022-11-01T14:24:35.424Z,1.17
2022-11-01T14:27:39.044Z,1.20
2022-11-01T14:30:43.259Z,1.13
2022-11-01T14:33:48.237Z,0.85
2022-11-01T14:36:52.252Z,1.05
2022-11-01T14:40:04.071Z,0.85
2022-11-01T14:43:12.012Z,0.77
2022-11-01T14:46:17.037Z,1.02
2022-11-01T14:49:25.784Z,1.30
2022-11-01T14:52:31.988Z,1.05
2022-11-01T14:55:36.252Z,1.17
2022-11-01T14:58:38.781Z,1.05
2022-11-01T15:01:44.297Z,1.27
2022-11-01T15:04:49.050Z,1.38
2022-11-01T15:07:52.861Z,1.52
2022-11-01T15:10:56.517Z,1.33
2022-11-01T15:13:59.877Z,1.20
2022-11-01T15:17:02.391Z,2.28
2022-11-01T15:20:12.950Z,1.27
2022-11-01T15:23:18.886Z,1.17
2022-11-01T15:26:22.510Z,1.60
2022-11-01T15:29:25.817Z,1.55
2022-11-01T15:32:30.271Z,1.25
2022-11-01T15:35:34.318Z,0.90
2022-11-01T15:38:49.248Z,1.48
2022-11-01T15:41:52.069Z,1.42
2022-11-01T15:44:54.617Z,1.40
2022-11-01T15:47:59.750Z,1.40
2022-11-01T15:51:05.906Z,1.40
2022-11-01T15:54:14.569Z,1.20
2022-11-01T15:57:19.570Z,1.63
2022-11-01T16:00:22.972Z,1.45
2022-11-01T16:03:34.341Z,2.10
2022-11-01T16:06:41.056Z,3.25
2022-11-01T16:09:45.590Z,2.05
2022-11-01T16:13:00.857Z,1.67
2022-11-01T16:16:05.988Z,1.52
2022-11-01T16:19:23.956Z,1.55
2022-11-01T16:22:29.896Z,1.52
2022-11-01T16:25:33.089Z,1.35
2022-11-01T16:28:40.342Z,1.30
2022-11-01T16:31:42.934Z,1.63
2022-11-01T16:34:45.732Z,2.13
2022-11-01T16:37:50.138Z,1.98
2022-11-01T16:40:55.643Z,1.67
2022-11-01T16:44:00.323Z,2.03
2022-11-01T16:47:02.941Z,2.10
2022-11-01T16:50:05.864Z,1.98
2022-11-01T16:53:11.367Z,2.10
2022-11-01T16:56:35.565Z,1.90
2022-11-01T16:59:39.054Z,1.60
2022-11-01T17:02:42.703Z,1.40
2022-11-01T17:05:45.452Z,1.60
2022-11-01T17:08:49.247Z,1.90
2022-11-01T17:11:54.305Z,2.08
2022-11-01T17:14:56.962Z,1.70
2022-11-01T17:18:01.815Z,2.30
2022-11-01T17:21:06.779Z,4.78
2022-11-01T17:24:11.074Z,4.88
2022-11-01T17:27:13.621Z,2.65
2022-11-01T17:30:16.136Z,3.05
2022-11-01T17:33:18.609Z,2.53
2022-11-01T17:36:21.127Z,1.90
2022-11-01T17:39:25.626Z,3.33
2022-11-01T17:42:28.283Z,5.43
2022-11-01T17:45:30.781Z,15.70
2022-11-01T17:48:33.234Z,9.63
2022-11-01T17:51:35.705Z,6.63
2022-11-01T17:54:39.775Z,7.25
2022-11-01T17:57:43.363Z,4.60
2022-11-01T18:00:45.813Z,3.53
2022-11-01T18:03:48.679Z,2.28
2022-11-01T18:06:51.897Z,1.63
2022-11-01T18:09:56.339Z,1.65
2022-11-01T18:13:07.723Z,1.85
2022-11-01T18:16:16.793Z,1.33
2022-11-01T18:19:26.515Z,1.45
2022-11-01T18:22:32.466Z,1.45
2022-11-01T18:25:41.252Z,1.60
2022-11-01T18:28:44.226Z,1.38
2022-11-01T18:31:47.852Z,1.75
2022-11-01T18:34:52.539Z,1.38
2022-11-01T18:38:04.488Z,1.45
2022-11-01T18:41:13.120Z,1.73
2022-11-01T18:44:15.895Z,1.52
2022-11-01T18:47:21.097Z,1.92
2022-11-01T18:50:25.948Z,3.78
2022-11-01T18:53:29.120Z,3.42
2022-11-01T18:56:33.546Z,3.35
2022-11-01T18:59:38.774Z,2.60
2022-11-01T19:02:41.311Z,2.75
2022-11-01T19:05:43.921Z,2.05
2022-11-01T19:08:49.780Z,2.00
2022-11-01T19:11:55.221Z,1.50
2022-11-01T19:14:59.970Z,2.00
2022-11-01T19:18:07.753Z,1.90
2022-11-01T19:21:14.894Z,1.50
2022-11-01T19:24:27.111Z,2.08
2022-11-01T19:27:31.001Z,2.38
2022-11-01T19:30:34.171Z,1.90
2022-11-01T19:33:39.917Z,2.30
2022-11-01T19:36:43.420Z,1.80
2022-11-01T19:39:45.947Z,1.65
2022-11-01T19:42:49.778Z,2.05
2022-11-01T19:45:53.193Z,1.50
2022-11-01T19:48:55.823Z,1.70
2022-11-01T19:52:02.542Z,1.70
2022-11-01T19:55:24.788Z,1.58
2022-11-01T19:58:37.032Z,1.80
2022-11-01T20:01:45.164Z,1.30
2022-11-01T20:04:53.092Z,1.55
2022-11-01T20:08:02.408Z,1.33
2022-11-01T20:11:08.113Z,1.98
2022-11-01T20:14:13.016Z,1.20
2022-11-01T20:17:15.653Z,1.92
2022-11-01T20:20:18.333Z,1.30
2022-11-01T20:23:26.235Z,2.13
2022-11-01T20:26:29.483Z,1.20
2022-11-01T20:29:33.433Z,1.55
2022-11-01T20:32:37.363Z,1.10
2022-11-01T20:35:55.088Z,1.23
2022-11-01T20:39:26.214Z,1.17
2022-11-01T20:42:28.668Z,1.02
2022-11-01T20:45:34.323Z,1.33
2022-11-01T20:48:36.820Z,1.35
2022-11-01T20:51:40.456Z,1.08
2022-11-01T20:54:42.932Z,1.20
2022-11-01T20:57:45.739Z,1.40
2022-11-01T21:00:51.409Z,2.03
2022-11-01T21:03:54.821Z,1.65
2022-11-01T21:06:57.920Z,1.77
2022-11-01T21:10:00.605Z,1.63
2022-11-01T21:13:04.214Z,1.58
2022-11-01T21:16:16.044Z,1.35
2022-11-01T21:19:20.940Z,1.67
2022-11-01T21:22:24.851Z,1.85
2022-11-01T21:25:27.478Z,1.70
2022-11-01T21:28:33.292Z,1.58
2022-11-01T21:31:38.665Z,1.65
2022-11-01T21:34:43.103Z,1.60
2022-11-01T21:37:48.816Z,2.55
2022-11-01T21:40:51.279Z,1.38
2022-11-01T21:43:53.924Z,1.30
2022-11-01T21:47:12.439Z,1.27
2022-11-01T21:50:15.176Z,1.20
2022-11-01T21:53:17.664Z,1.17
2022-11-01T21:56:20.549Z,1.52
2022-11-01T21:59:23.555Z,0.77
2022-11-01T22:02:32.253Z,1.08
2022-11-01T22:05:34.744Z,1.67
2022-11-01T22:08:37.518Z,1.45
2022-11-01T22:11:40.674Z,1.42
2022-11-01T22:14:43.341Z,1.05
2022-11-01T22:17:47.137Z,1.20
2022-11-01T22:20:49.730Z,0.75
2022-11-01T22:23:52.328Z,1.10
2022-11-01T22:26:57.289Z,1.17
2022-11-01T22:30:00.151Z,1.23
2022-11-01T22:33:05.840Z,0.95
2022-11-01T22:36:17.625Z,1.42
2022-11-01T22:39:21.838Z,1.30
2022-11-01T22:42:38.179Z,1.10
2022-11-01T22:45:41.757Z,1.65
2022-11-01T22:48:45.541Z,1.08
2022-11-01T22:51:49.144Z,1.17
2022-11-01T22:54:53.316Z,1.35
2022-11-01T22:57:58.757Z,1.00
2022-11-01T23:01:01.787Z,1.42
2022-11-01T23:04:17.580Z,1.52
2022-11-01T23:07:23.685Z,1.35
2022-11-01T23:10:30.208Z,1.15
2022-11-01T23:13:50.999Z,1.15
2022-11-01T23:16:53.448Z,1.60
2022-11-01T23:19:59.088Z,1.48
2022-11-01T23:23:02.223Z,1.30
2022-11-01T23:26:05.312Z,1.10
2022-11-01T23:29:08.003Z,0.90
2022-11-01T23:32:11.269Z,1.00
2022-11-01T23:35:18.458Z,0.98
2022-11-01T23:38:22.285Z,1.20
2022-11-01T23:41:26.382Z,1.20
2022-11-01T23:44:29.714Z,1.13
2022-11-01T23:47:36.209Z,1.23
2022-11-01T23:50:39.956Z,1.05
2022-11-01T23:53:43.353Z,1.45
2022-11-01T23:56:45.773Z,0.88
2022-11-01T23:59:48.784Z,0.90
